ADDS METAR Data INFO
IDs: Format: Raw Decoded Include TAF

Data at: 1809 UTC 18 Feb 2018

KSPI 181752Z 16018G23KT 10SM CLR 08/01 A3017 RMK AO2 SLP221 I6000 T00780011 10078 21039 58038
KSPI 181652Z 15015KT 10SM CLR 07/01 A3022 RMK AO2 SLP240 T00670011
KSPI 181552Z 16011KT 10SM CLR 03/01 A3027 RMK AO2 SLP257 T00330006
KSPI 181452Z 17009KT 8SM CLR 01/M01 A3028 RMK AO2 SLP259 I3000 T00111006 53006
KSPI 181352Z 16008KT 6SM BR CLR M01/M02 A3026 RMK AO2 SLP253 T10061017
KSPI 181252Z 16010KT 5SM BR CLR M01/M03 A3024 RMK AO2 SLP248 I1000 T10111028
KSPI 181152Z 17007KT 5SM BR CLR M04/M05 A3026 RMK AO2 SLP255 70005 I1000 I6001 T10391050 11028 21067 53001
KSPI 181052Z AUTO 17005KT 5SM BR CLR M04/M05 A3026 RMK AO2 SLP254 T10391050
KSPI 180952Z AUTO 00000KT 4SM BR CLR M06/M07 A3025 RMK AO2 SLP249 I1000 T10611067
KSPI 180949Z AUTO 00000KT 2SM BR CLR M06/M07 A3024 RMK AO2 I1000
KSPI 180934Z AUTO 00000KT 3/4SM R04/P6000FT BR CLR M05/M06 A3024 RMK AO2 I1000 T10501061
KSPI 180929Z AUTO 00000KT 1 3/4SM BR CLR M05/M06 A3025 RMK AO2 I1000 T10501061
KSPI 180852Z AUTO 00000KT 6SM BR CLR M06/M07 A3026 RMK AO2 SLP255 I1000 I3001 T10561067 53005
KSPI 180808Z AUTO 17004KT 3SM BR CLR M05/M06 A3026 RMK AO2 T10501061
KSPI 180805Z AUTO 18003KT 1 1/2SM BR CLR M05/M06 A3026 RMK AO2 T10501061
KSPI 180757Z AUTO 00000KT 3/4SM R04/P6000FT BR CLR M04/M06 A3025 RMK AO2 T10441056
KSPI 180752Z AUTO 00000KT 1 1/2SM BR CLR M04/M06 A3025 RMK AO2 SLP251 T10441056
KSPI 180748Z AUTO 00000KT 1SM R04/P6000FT BR CLR M05/M05 A3025 RMK AO2
KSPI 180728Z AUTO 06003KT 1 3/4SM BR CLR M04/M04 A3025 RMK AO2 T10391044
KSPI 180652Z AUTO 00000KT 4SM BR CLR M04/M05 A3025 RMK AO2 SLP250 I1001 T10441050
KSPI 180552Z AUTO 00000KT 4SM BR CLR M04/M04 A3024 RMK AO2 SLP246 I1001 I6001 T10391044 10028 21039 400391061 51007
KSPI 180452Z AUTO 17005KT 3SM BR CLR M04/M04 A3023 RMK AO2 SLP245 I1000 T10391044
KSPI 180441Z AUTO 18005KT 2SM BR CLR M04/M04 A3023 RMK AO2 I1000 T10391044
KSPI 180352Z 00000KT 9SM CLR 00/M01 A3022 RMK AO2 SLP238 T00001011
KSPI 180252Z 29006KT 9SM CLR 01/M01 A3020 RMK AO2 SLP233 T00061006 53037
KSPI 180152Z 31005KT 9SM CLR 01/M01 A3015 RMK AO2 SLP217 T00061006
KSPI 180052Z 29005KT 10SM CLR 02/01 A3013 RMK AO2 SLP207 T00170006
KSPI 172352Z 28007KT 10SM CLR 03/01 A3009 RMK AO2 SLP195 60004 T00280006 10039 20011 51022
KSPI 172252Z 28015KT 10SM FEW024 SCT029 04/01 A3006 RMK AO2 SLP185 T00390011
KSPI 172238Z 28012KT 10SM FEW021 BKN028 04/02 A3005 RMK AO2 T00390017
KSPI 172152Z 26012KT 5SM BR BKN009 BKN013 OVC022 03/02 A3002 RMK AO2 SLP173 T00330022
KSPI 172052Z 23011KT 6SM BR OVC008 03/02 A2998 RMK AO2 RAB14E45UPB28E36SNE14 SLP160 P0000 60004 T00280017 55008
KSPI 172016Z 21010KT 3SM -RA BR OVC008 02/01 A2997 RMK AO2 RAB14SNE14 P0000 T00220011
KSPI 171952Z 20011KT 2 1/2SM -SN BR OVC006 02/01 A2996 RMK AO2 RAB19E29UPB29E33SNE19B33 SLP153 P0002 T00220011
KSPI 171934Z 20010G18KT 3SM -SN BR OVC006 02/01 A2996 RMK AO2 RAB19E29UPB29E33SNE19B33 P0001 T00220011
KSPI 171926Z 20009KT 2 1/2SM -RA BR OVC006 02/01 A2996 RMK AO2 RAB19SNE19 P0001 T00220011
KSPI 171914Z 19011KT 1 1/2SM -SN BR OVC006 02/01 A2996 RMK AO2 P0001 T00170011
KSPI 171852Z 20010KT 1 1/4SM -SN BR OVC007 02/01 A2999 RMK AO2 UPE03SNB03 SLP161 P0002 T00170006
KSPI 171829Z 21010G16KT 1 1/4SM -SN BR OVC007 02/01 A3001 RMK AO2 UPE03SNB03 P0001 T00170006
KSPI 171810Z 20013KT 1 3/4SM -SN BR OVC007 02/01 A3000 RMK AO2 UPE03SNB03 P0001 T00170006
KSPI 171752Z 20011KT 4SM UP BR OVC007 02/01 A3001 RMK AO2 UPB13SNE13 SLP169 P0001 60001 T00170006 10017 21017 58018
KSPI 171745Z 20011KT 3SM UP BR OVC006 01/01 A3001 RMK AO2 UPB13SNE13 P0001 T00110006
KSPI 171725Z 19012KT 2SM UP BR OVC006 01/01 A3002 RMK AO2 UPB13SNE13 P0001 T00110006
KSPI 171706Z 18013KT 1 3/4SM -SN BR OVC007 01/00 A3003 RMK AO2 P0001 T00110000
KSPI 171652Z 18010KT 2SM -SN BR OVC008 01/M01 A3004 RMK AO2 SNE1554B17 SLP181 P0000 T00061006
KSPI 171622Z 18008KT 5SM -SN BR OVC009 01/M01 A3005 RMK AO2 SNE1554B17 P0000 T00061011
KSPI 171552Z 16011KT 5SM -SN BKN012 OVC019 01/M02 A3004 RMK AO2 SNB24 SLP180 P0000 T00111017
KSPI 171508Z 16013KT 10SM BKN024 OVC034 01/M03 A3006 RMK AO2 T00061028
KSPI 171452Z 16014KT 10SM BKN034 OVC085 01/M03 A3006 RMK AO2 SLP187 60000 T00061033 56030
KSPI 171352Z 17010KT 9SM OVC100 00/M03 A3009 RMK AO2 SLP196 T00001033
KSPI 171252Z 12006KT 10SM OVC100 M02/M04 A3011 RMK AO2 UPB06E36 SLP201 P0000 T10171044
KSPI 171152Z 15007KT 10SM OVC110 M02/M05 A3016 RMK AO2 UPB28E38 SLP218 P0000 60000 T10171050 11017 21061 55013
KSPI 171052Z AUTO 14007KT 10SM CLR M03/M07 A3015 RMK AO2 UPE11 SLP216 P0000 T10281067
KSPI 170952Z AUTO 13006KT 10SM UP CLR M03/M07 A3017 RMK AO2 UPB50 SLP224 P0000 T10331072
KSPI 170852Z AUTO 12005KT 10SM CLR M05/M09 A3019 RMK AO2 SLP231 T10501089 58028
KSPI 170752Z AUTO 09003KT 10SM CLR M06/M09 A3023 RMK AO2 SLP242 T10561089
KSPI 170652Z AUTO 00000KT 10SM CLR M06/M08 A3026 RMK AO2 SLP254 T10561083